KPNC/PNC METAR and TAF weather

Enter ICAO airport designator
Station Type Date Time Source
KPNC METAR 2018/12/18 18:53 UTC NOAA

KPNC 181853Z AUTO 17006KT 10SM CLR 11/06 A3000 RMK AO2 SLP162 T01110056


Station Type Date Time Source
KPNC Decoded METAR 2018/12/18 18:53 UTC NOAA

PONCA CITY MUNICIPAL AIRPORT, OK, United States (KPNC) 36-44N 97-06W 308M
Dec 18, 2018 - 01:53 PM EST / 2018.12.18 1853 UTC
Wind: from the S (170 degrees) at 7 MPH (6 KT):0
Visibility: 10 mile(s):0
Sky conditions: clear
Temperature: 52.0 F (11.1 C)
Dew Point: 42.1 F (5.6 C)
Relative Humidity: 68%
Pressure (altimeter): 30 in. Hg (1015 hPa)
ob: KPNC 181853Z AUTO 17006KT 10SM CLR 11/06 A3000 RMK AO2 SLP162 T01110056
cycle: 19

Station Type Date Time Source
KPNC TAF 2018/12/18 18:52 UTC NOAA

TAF
AMD KPNC 181749Z 1818/1918 15007KT P6SM BKN120
FM190900 17009KT P6SM BKN020


Example: see airport list